sensor_id;sensor_type;location;lat;lon;timestamp;P1;durP1;ratioP1;P2;durP2;ratioP2
14748;SDS011;7466;53.574;9.976;2022-12-18T00:01:01;22.97;;;13.20;;
14748;SDS011;7466;53.574;9.976;2022-12-18T00:03:31;15.83;;;12.80;;
14748;SDS011;7466;53.574;9.976;2022-12-18T00:05:58;20.97;;;13.87;;
14748;SDS011;7466;53.574;9.976;2022-12-18T00:08:26;18.63;;;13.03;;
14748;SDS011;7466;53.574;9.976;2022-12-18T00:10:56;18.53;;;13.73;;
14748;SDS011;7466;53.574;9.976;2022-12-18T00:13:29;18.00;;;13.33;;
14748;SDS011;7466;53.574;9.976;2022-12-18T00:16:00;18.10;;;13.20;;
14748;SDS011;7466;53.574;9.976;2022-12-18T00:18:27;21.00;;;14.07;;
14748;SDS011;7466;53.574;9.976;2022-12-18T00:20:58;18.53;;;13.43;;
14748;SDS011;7466;53.574;9.976;2022-12-18T00:23:25;20.83;;;13.57;;
14748;SDS011;7466;53.574;9.976;2022-12-18T00:25:52;23.43;;;14.67;;
14748;SDS011;7466;53.574;9.976;2022-12-18T00:28:20;17.50;;;13.17;;
14748;SDS011;7466;53.574;9.976;2022-12-18T00:30:47;19.90;;;13.30;;
14748;SDS011;7466;53.574;9.976;2022-12-18T00:33:16;19.43;;;13.47;;
14748;SDS011;7466;53.574;9.976;2022-12-18T00:35:43;20.27;;;13.03;;
14748;SDS011;7466;53.574;9.976;2022-12-18T00:38:09;22.20;;;13.70;;
14748;SDS011;7466;53.574;9.976;2022-12-18T00:40:37;20.13;;;13.47;;
14748;SDS011;7466;53.574;9.976;2022-12-18T00:43:03;17.77;;;13.10;;
14748;SDS011;7466;53.574;9.976;2022-12-18T00:45:30;21.63;;;12.23;;
14748;SDS011;7466;53.574;9.976;2022-12-18T00:47:59;15.80;;;12.17;;
14748;SDS011;7466;53.574;9.976;2022-12-18T00:50:29;20.27;;;13.10;;
14748;SDS011;7466;53.574;9.976;2022-12-18T00:52:55;17.40;;;13.17;;
14748;SDS011;7466;53.574;9.976;2022-12-18T00:55:22;16.20;;;12.27;;
14748;SDS011;7466;53.574;9.976;2022-12-18T00:57:50;16.67;;;12.33;;
14748;SDS011;7466;53.574;9.976;2022-12-18T01:00:17;17.03;;;12.03;;
14748;SDS011;7466;53.574;9.976;2022-12-18T01:02:46;18.30;;;12.47;;
14748;SDS011;7466;53.574;9.976;2022-12-18T01:05:13;18.07;;;12.33;;
14748;SDS011;7466;53.574;9.976;2022-12-18T01:07:41;17.77;;;13.17;;
14748;SDS011;7466;53.574;9.976;2022-12-18T01:10:09;16.13;;;11.83;;
14748;SDS011;7466;53.574;9.976;2022-12-18T01:12:37;17.63;;;12.20;;
14748;SDS011;7466;53.574;9.976;2022-12-18T01:15:05;19.50;;;12.13;;
14748;SDS011;7466;53.574;9.976;2022-12-18T01:17:34;15.97;;;11.03;;
14748;SDS011;7466;53.574;9.976;2022-12-18T01:20:02;17.03;;;12.17;;
14748;SDS011;7466;53.574;9.976;2022-12-18T01:22:30;19.33;;;11.53;;
14748;SDS011;7466;53.574;9.976;2022-12-18T01:25:03;16.60;;;11.70;;
14748;SDS011;7466;53.574;9.976;2022-12-18T01:27:31;17.20;;;12.23;;
14748;SDS011;7466;53.574;9.976;2022-12-18T01:29:58;14.47;;;12.40;;
14748;SDS011;7466;53.574;9.976;2022-12-18T01:32:25;15.93;;;11.80;;
14748;SDS011;7466;53.574;9.976;2022-12-18T01:34:52;15.07;;;11.53;;
14748;SDS011;7466;53.574;9.976;2022-12-18T01:37:23;16.53;;;12.23;;
14748;SDS011;7466;53.574;9.976;2022-12-18T01:39:51;17.20;;;11.37;;
14748;SDS011;7466;53.574;9.976;2022-12-18T01:42:19;18.47;;;11.97;;
14748;SDS011;7466;53.574;9.976;2022-12-18T01:44:50;14.67;;;11.30;;
14748;SDS011;7466;53.574;9.976;2022-12-18T01:47:21;16.87;;;11.57;;
14748;SDS011;7466;53.574;9.976;2022-12-18T01:49:52;19.40;;;11.07;;
14748;SDS011;7466;53.574;9.976;2022-12-18T01:52:21;17.50;;;11.60;;
14748;SDS011;7466;53.574;9.976;2022-12-18T01:54:50;15.93;;;12.27;;
14748;SDS011;7466;53.574;9.976;2022-12-18T01:57:18;16.50;;;11.17;;
14748;SDS011;7466;53.574;9.976;2022-12-18T01:59:46;15.70;;;12.10;;
14748;SDS011;7466;53.574;9.976;2022-12-18T02:02:17;14.03;;;11.90;;
14748;SDS011;7466;53.574;9.976;2022-12-18T02:04:44;17.90;;;11.87;;
14748;SDS011;7466;53.574;9.976;2022-12-18T02:07:18;19.73;;;11.70;;
14748;SDS011;7466;53.574;9.976;2022-12-18T02:09:54;19.67;;;11.40;;
14748;SDS011;7466;53.574;9.976;2022-12-18T02:12:25;15.87;;;11.90;;
14748;SDS011;7466;53.574;9.976;2022-12-18T02:14:58;16.87;;;11.10;;
14748;SDS011;7466;53.574;9.976;2022-12-18T02:17:30;22.93;;;12.27;;
14748;SDS011;7466;53.574;9.976;2022-12-18T02:20:05;16.73;;;11.30;;
14748;SDS011;7466;53.574;9.976;2022-12-18T02:22:42;15.30;;;11.77;;
14748;SDS011;7466;53.574;9.976;2022-12-18T02:25:23;18.73;;;11.40;;
14748;SDS011;7466;53.574;9.976;2022-12-18T02:28:03;17.30;;;11.80;;
14748;SDS011;7466;53.574;9.976;2022-12-18T02:30:36;20.70;;;12.10;;
14748;SDS011;7466;53.574;9.976;2022-12-18T02:33:06;18.03;;;12.00;;
14748;SDS011;7466;53.574;9.976;2022-12-18T02:35:35;15.47;;;11.93;;
14748;SDS011;7466;53.574;9.976;2022-12-18T02:38:04;15.13;;;11.63;;
14748;SDS011;7466;53.574;9.976;2022-12-18T02:40:31;15.70;;;12.13;;
14748;SDS011;7466;53.574;9.976;2022-12-18T02:43:03;15.67;;;11.23;;
14748;SDS011;7466;53.574;9.976;2022-12-18T02:45:33;16.83;;;11.67;;
14748;SDS011;7466;53.574;9.976;2022-12-18T02:48:00;15.17;;;11.23;;
14748;SDS011;7466;53.574;9.976;2022-12-18T02:50:29;18.37;;;11.57;;
14748;SDS011;7466;53.574;9.976;2022-12-18T02:53:03;19.57;;;11.67;;
14748;SDS011;7466;53.574;9.976;2022-12-18T02:55:39;15.30;;;10.83;;
14748;SDS011;7466;53.574;9.976;2022-12-18T02:58:17;15.43;;;11.43;;
14748;SDS011;7466;53.574;9.976;2022-12-18T03:00:52;13.63;;;10.37;;
14748;SDS011;7466;53.574;9.976;2022-12-18T03:03:25;14.53;;;11.03;;
14748;SDS011;7466;53.574;9.976;2022-12-18T03:05:56;17.97;;;11.00;;
14748;SDS011;7466;53.574;9.976;2022-12-18T03:08:28;23.07;;;12.10;;
14748;SDS011;7466;53.574;9.976;2022-12-18T03:10:58;16.33;;;11.37;;
14748;SDS011;7466;53.574;9.976;2022-12-18T03:13:30;20.23;;;11.87;;
14748;SDS011;7466;53.574;9.976;2022-12-18T03:15:59;14.50;;;11.07;;
14748;SDS011;7466;53.574;9.976;2022-12-18T03:18:29;16.70;;;11.10;;
14748;SDS011;7466;53.574;9.976;2022-12-18T03:21:02;16.17;;;11.50;;
14748;SDS011;7466;53.574;9.976;2022-12-18T03:23:32;15.60;;;11.17;;
14748;SDS011;7466;53.574;9.976;2022-12-18T03:26:05;17.73;;;11.50;;
14748;SDS011;7466;53.574;9.976;2022-12-18T03:28:36;13.67;;;11.00;;
14748;SDS011;7466;53.574;9.976;2022-12-18T03:31:05;13.00;;;10.23;;
14748;SDS011;7466;53.574;9.976;2022-12-18T03:33:34;12.40;;;10.77;;
14748;SDS011;7466;53.574;9.976;2022-12-18T03:36:04;15.27;;;10.57;;
14748;SDS011;7466;53.574;9.976;2022-12-18T03:38:32;15.67;;;11.50;;
14748;SDS011;7466;53.574;9.976;2022-12-18T03:40:59;14.03;;;10.80;;
14748;SDS011;7466;53.574;9.976;2022-12-18T03:43:38;14.30;;;10.40;;
14748;SDS011;7466;53.574;9.976;2022-12-18T03:46:14;12.87;;;10.10;;
14748;SDS011;7466;53.574;9.976;2022-12-18T03:48:50;15.63;;;11.03;;
14748;SDS011;7466;53.574;9.976;2022-12-18T03:51:23;16.60;;;11.13;;
14748;SDS011;7466;53.574;9.976;2022-12-18T03:53:55;12.97;;;10.67;;
14748;SDS011;7466;53.574;9.976;2022-12-18T03:56:25;14.03;;;10.30;;
14748;SDS011;7466;53.574;9.976;2022-12-18T03:59:00;13.83;;;9.97;;
14748;SDS011;7466;53.574;9.976;2022-12-18T04:01:30;10.90;;;9.53;;
14748;SDS011;7466;53.574;9.976;2022-12-18T04:04:00;12.33;;;9.53;;
14748;SDS011;7466;53.574;9.976;2022-12-18T04:06:28;15.17;;;10.50;;
14748;SDS011;7466;53.574;9.976;2022-12-18T04:08:56;14.00;;;10.43;;
14748;SDS011;7466;53.574;9.976;2022-12-18T04:11:24;14.03;;;10.77;;
14748;SDS011;7466;53.574;9.976;2022-12-18T04:13:53;17.73;;;10.37;;
14748;SDS011;7466;53.574;9.976;2022-12-18T04:16:23;19.27;;;9.93;;
14748;SDS011;7466;53.574;9.976;2022-12-18T04:18:50;18.43;;;9.90;;
14748;SDS011;7466;53.574;9.976;2022-12-18T04:21:17;14.13;;;10.70;;
14748;SDS011;7466;53.574;9.976;2022-12-18T04:23:44;14.67;;;10.73;;
14748;SDS011;7466;53.574;9.976;2022-12-18T04:26:11;17.70;;;11.47;;
14748;SDS011;7466;53.574;9.976;2022-12-18T04:28:38;14.07;;;11.20;;
14748;SDS011;7466;53.574;9.976;2022-12-18T04:31:04;14.93;;;10.37;;
14748;SDS011;7466;53.574;9.976;2022-12-18T04:33:32;14.63;;;10.73;;
14748;SDS011;7466;53.574;9.976;2022-12-18T04:35:59;15.60;;;11.37;;
14748;SDS011;7466;53.574;9.976;2022-12-18T04:38:26;15.93;;;11.57;;
14748;SDS011;7466;53.574;9.976;2022-12-18T04:40:53;15.20;;;11.70;;
14748;SDS011;7466;53.574;9.976;2022-12-18T04:43:20;13.10;;;10.67;;
14748;SDS011;7466;53.574;9.976;2022-12-18T04:45:46;12.43;;;10.87;;
14748;SDS011;7466;53.574;9.976;2022-12-18T04:48:13;15.33;;;11.20;;
14748;SDS011;7466;53.574;9.976;2022-12-18T04:50:41;12.67;;;9.90;;
14748;SDS011;7466;53.574;9.976;2022-12-18T04:53:08;13.77;;;10.83;;
14748;SDS011;7466;53.574;9.976;2022-12-18T04:55:35;15.87;;;11.03;;
14748;SDS011;7466;53.574;9.976;2022-12-18T04:58:01;12.17;;;10.20;;
14748;SDS011;7466;53.574;9.976;2022-12-18T05:00:28;18.13;;;10.80;;
14748;SDS011;7466;53.574;9.976;2022-12-18T05:02:55;18.13;;;11.10;;
14748;SDS011;7466;53.574;9.976;2022-12-18T05:05:21;15.57;;;10.77;;
14748;SDS011;7466;53.574;9.976;2022-12-18T05:07:50;14.73;;;11.37;;
14748;SDS011;7466;53.574;9.976;2022-12-18T05:10:17;13.43;;;10.97;;
14748;SDS011;7466;53.574;9.976;2022-12-18T05:12:44;15.43;;;10.43;;
14748;SDS011;7466;53.574;9.976;2022-12-18T05:15:26;15.50;;;10.97;;
14748;SDS011;7466;53.574;9.976;2022-12-18T05:17:55;14.13;;;10.33;;
14748;SDS011;7466;53.574;9.976;2022-12-18T05:20:22;19.43;;;11.10;;
14748;SDS011;7466;53.574;9.976;2022-12-18T05:22:49;14.47;;;10.20;;
14748;SDS011;7466;53.574;9.976;2022-12-18T05:25:18;15.80;;;10.70;;
14748;SDS011;7466;53.574;9.976;2022-12-18T05:27:46;15.40;;;11.23;;
14748;SDS011;7466;53.574;9.976;2022-12-18T05:30:14;13.50;;;10.30;;
14748;SDS011;7466;53.574;9.976;2022-12-18T05:32:42;12.53;;;10.67;;
14748;SDS011;7466;53.574;9.976;2022-12-18T05:35:09;13.97;;;10.53;;
14748;SDS011;7466;53.574;9.976;2022-12-18T05:37:36;12.00;;;9.90;;
14748;SDS011;7466;53.574;9.976;2022-12-18T05:40:10;18.00;;;11.20;;
14748;SDS011;7466;53.574;9.976;2022-12-18T05:42:37;16.17;;;10.30;;
14748;SDS011;7466;53.574;9.976;2022-12-18T05:45:05;12.17;;;10.17;;
14748;SDS011;7466;53.574;9.976;2022-12-18T05:47:32;14.20;;;10.50;;
14748;SDS011;7466;53.574;9.976;2022-12-18T05:50:00;14.23;;;10.90;;
14748;SDS011;7466;53.574;9.976;2022-12-18T05:52:26;16.83;;;10.33;;
14748;SDS011;7466;53.574;9.976;2022-12-18T05:54:53;15.10;;;10.60;;
14748;SDS011;7466;53.574;9.976;2022-12-18T05:57:21;14.40;;;9.90;;
14748;SDS011;7466;53.574;9.976;2022-12-18T05:59:48;14.47;;;10.43;;
14748;SDS011;7466;53.574;9.976;2022-12-18T06:02:15;14.63;;;10.37;;
14748;SDS011;7466;53.574;9.976;2022-12-18T06:04:42;13.83;;;10.50;;
14748;SDS011;7466;53.574;9.976;2022-12-18T06:07:08;15.17;;;9.97;;
14748;SDS011;7466;53.574;9.976;2022-12-18T06:09:35;14.73;;;10.37;;
14748;SDS011;7466;53.574;9.976;2022-12-18T06:12:02;12.20;;;10.43;;
14748;SDS011;7466;53.574;9.976;2022-12-18T06:14:30;14.70;;;9.90;;
14748;SDS011;7466;53.574;9.976;2022-12-18T06:16:57;11.97;;;10.13;;
14748;SDS011;7466;53.574;9.976;2022-12-18T06:19:24;13.00;;;9.80;;
14748;SDS011;7466;53.574;9.976;2022-12-18T06:21:50;14.47;;;10.67;;
14748;SDS011;7466;53.574;9.976;2022-12-18T06:24:18;14.13;;;10.80;;
14748;SDS011;7466;53.574;9.976;2022-12-18T06:26:45;15.03;;;10.00;;
14748;SDS011;7466;53.574;9.976;2022-12-18T06:29:11;14.77;;;10.33;;
14748;SDS011;7466;53.574;9.976;2022-12-18T06:31:40;13.80;;;10.60;;
14748;SDS011;7466;53.574;9.976;2022-12-18T06:34:06;12.53;;;9.63;;
14748;SDS011;7466;53.574;9.976;2022-12-18T06:36:33;14.33;;;10.73;;
14748;SDS011;7466;53.574;9.976;2022-12-18T06:39:00;16.87;;;10.77;;
14748;SDS011;7466;53.574;9.976;2022-12-18T06:41:27;14.53;;;10.80;;
14748;SDS011;7466;53.574;9.976;2022-12-18T06:43:53;17.13;;;10.50;;
14748;SDS011;7466;53.574;9.976;2022-12-18T06:46:20;15.00;;;10.80;;
14748;SDS011;7466;53.574;9.976;2022-12-18T06:48:49;14.97;;;10.73;;
14748;SDS011;7466;53.574;9.976;2022-12-18T06:51:19;14.40;;;11.27;;
14748;SDS011;7466;53.574;9.976;2022-12-18T06:53:48;16.40;;;10.17;;
14748;SDS011;7466;53.574;9.976;2022-12-18T06:56:15;14.73;;;11.37;;
14748;SDS011;7466;53.574;9.976;2022-12-18T06:58:42;15.87;;;10.37;;
14748;SDS011;7466;53.574;9.976;2022-12-18T07:01:10;18.30;;;11.13;;
14748;SDS011;7466;53.574;9.976;2022-12-18T07:03:37;13.70;;;10.63;;
14748;SDS011;7466;53.574;9.976;2022-12-18T07:06:06;13.53;;;10.77;;
14748;SDS011;7466;53.574;9.976;2022-12-18T07:08:38;13.43;;;10.97;;
14748;SDS011;7466;53.574;9.976;2022-12-18T07:11:05;14.27;;;11.30;;
14748;SDS011;7466;53.574;9.976;2022-12-18T07:13:32;14.57;;;10.90;;
14748;SDS011;7466;53.574;9.976;2022-12-18T07:16:03;14.00;;;11.03;;
14748;SDS011;7466;53.574;9.976;2022-12-18T07:18:31;17.13;;;11.03;;
14748;SDS011;7466;53.574;9.976;2022-12-18T07:20:57;16.23;;;11.07;;
14748;SDS011;7466;53.574;9.976;2022-12-18T07:23:29;14.27;;;11.77;;
14748;SDS011;7466;53.574;9.976;2022-12-18T07:26:00;16.10;;;11.70;;
14748;SDS011;7466;53.574;9.976;2022-12-18T07:28:34;17.20;;;11.03;;
14748;SDS011;7466;53.574;9.976;2022-12-18T07:31:06;14.40;;;10.87;;
14748;SDS011;7466;53.574;9.976;2022-12-18T07:33:34;13.77;;;9.97;;
14748;SDS011;7466;53.574;9.976;2022-12-18T07:36:01;14.53;;;11.10;;
14748;SDS011;7466;53.574;9.976;2022-12-18T07:38:30;13.73;;;11.37;;
14748;SDS011;7466;53.574;9.976;2022-12-18T07:40:59;16.30;;;12.07;;
14748;SDS011;7466;53.574;9.976;2022-12-18T07:43:26;17.87;;;11.73;;
14748;SDS011;7466;53.574;9.976;2022-12-18T07:45:54;15.27;;;10.97;;
14748;SDS011;7466;53.574;9.976;2022-12-18T07:48:21;14.93;;;10.87;;
14748;SDS011;7466;53.574;9.976;2022-12-18T07:50:48;16.03;;;11.27;;
14748;SDS011;7466;53.574;9.976;2022-12-18T07:53:15;15.77;;;11.07;;
14748;SDS011;7466;53.574;9.976;2022-12-18T07:55:43;15.63;;;11.40;;
14748;SDS011;7466;53.574;9.976;2022-12-18T07:58:12;14.77;;;10.70;;
14748;SDS011;7466;53.574;9.976;2022-12-18T08:00:41;16.53;;;11.03;;
14748;SDS011;7466;53.574;9.976;2022-12-18T08:03:08;17.97;;;10.97;;
14748;SDS011;7466;53.574;9.976;2022-12-18T08:05:34;14.03;;;11.47;;
14748;SDS011;7466;53.574;9.976;2022-12-18T08:08:02;18.43;;;11.00;;
14748;SDS011;7466;53.574;9.976;2022-12-18T08:10:30;18.53;;;11.13;;
14748;SDS011;7466;53.574;9.976;2022-12-18T08:13:01;12.53;;;10.93;;
14748;SDS011;7466;53.574;9.976;2022-12-18T08:15:28;18.00;;;10.77;;
14748;SDS011;7466;53.574;9.976;2022-12-18T08:17:55;13.57;;;10.30;;
14748;SDS011;7466;53.574;9.976;2022-12-18T08:20:22;18.97;;;11.43;;
14748;SDS011;7466;53.574;9.976;2022-12-18T08:22:49;15.03;;;10.90;;
14748;SDS011;7466;53.574;9.976;2022-12-18T08:25:16;14.37;;;11.40;;
14748;SDS011;7466;53.574;9.976;2022-12-18T08:27:43;18.33;;;11.23;;
14748;SDS011;7466;53.574;9.976;2022-12-18T08:30:12;18.07;;;11.00;;
14748;SDS011;7466;53.574;9.976;2022-12-18T08:32:39;15.43;;;10.73;;
14748;SDS011;7466;53.574;9.976;2022-12-18T08:35:06;17.70;;;12.03;;
14748;SDS011;7466;53.574;9.976;2022-12-18T08:37:33;12.67;;;10.17;;
14748;SDS011;7466;53.574;9.976;2022-12-18T08:40:00;18.80;;;11.50;;
14748;SDS011;7466;53.574;9.976;2022-12-18T08:42:28;18.60;;;11.43;;
14748;SDS011;7466;53.574;9.976;2022-12-18T08:45:20;14.50;;;11.17;;
14748;SDS011;7466;53.574;9.976;2022-12-18T08:47:46;20.17;;;11.43;;
14748;SDS011;7466;53.574;9.976;2022-12-18T08:50:13;17.80;;;11.60;;
14748;SDS011;7466;53.574;9.976;2022-12-18T08:52:40;12.47;;;10.80;;
14748;SDS011;7466;53.574;9.976;2022-12-18T08:55:07;13.00;;;10.93;;
14748;SDS011;7466;53.574;9.976;2022-12-18T08:57:35;15.10;;;10.80;;
14748;SDS011;7466;53.574;9.976;2022-12-18T09:00:02;15.17;;;11.13;;
14748;SDS011;7466;53.574;9.976;2022-12-18T09:02:31;14.13;;;11.53;;
14748;SDS011;7466;53.574;9.976;2022-12-18T09:04:57;21.63;;;11.70;;
14748;SDS011;7466;53.574;9.976;2022-12-18T09:07:24;18.20;;;12.00;;
14748;SDS011;7466;53.574;9.976;2022-12-18T09:09:53;14.90;;;11.43;;
14748;SDS011;7466;53.574;9.976;2022-12-18T09:12:20;16.20;;;12.13;;
14748;SDS011;7466;53.574;9.976;2022-12-18T09:14:47;21.00;;;11.53;;
14748;SDS011;7466;53.574;9.976;2022-12-18T09:17:14;15.67;;;11.27;;
14748;SDS011;7466;53.574;9.976;2022-12-18T09:19:42;18.20;;;11.20;;
14748;SDS011;7466;53.574;9.976;2022-12-18T09:22:09;18.27;;;12.10;;
14748;SDS011;7466;53.574;9.976;2022-12-18T09:24:36;15.87;;;11.30;;
14748;SDS011;7466;53.574;9.976;2022-12-18T09:27:02;15.30;;;11.17;;
14748;SDS011;7466;53.574;9.976;2022-12-18T09:29:32;13.97;;;10.90;;
14748;SDS011;7466;53.574;9.976;2022-12-18T09:31:59;16.40;;;11.67;;
14748;SDS011;7466;53.574;9.976;2022-12-18T09:34:27;13.67;;;11.50;;
14748;SDS011;7466;53.574;9.976;2022-12-18T09:36:55;17.93;;;11.67;;
14748;SDS011;7466;53.574;9.976;2022-12-18T09:39:22;13.87;;;11.40;;
14748;SDS011;7466;53.574;9.976;2022-12-18T09:41:50;16.57;;;11.20;;
14748;SDS011;7466;53.574;9.976;2022-12-18T09:44:21;15.97;;;11.60;;
14748;SDS011;7466;53.574;9.976;2022-12-18T09:46:53;16.03;;;11.50;;
14748;SDS011;7466;53.574;9.976;2022-12-18T09:49:29;17.30;;;12.00;;
14748;SDS011;7466;53.574;9.976;2022-12-18T09:52:02;18.63;;;11.57;;
14748;SDS011;7466;53.574;9.976;2022-12-18T09:54:35;18.37;;;12.03;;
14748;SDS011;7466;53.574;9.976;2022-12-18T09:57:13;15.53;;;10.90;;
14748;SDS011;7466;53.574;9.976;2022-12-18T09:59:41;14.13;;;10.83;;
14748;SDS011;7466;53.574;9.976;2022-12-18T10:02:16;15.63;;;11.20;;
14748;SDS011;7466;53.574;9.976;2022-12-18T10:04:47;16.70;;;11.27;;
14748;SDS011;7466;53.574;9.976;2022-12-18T10:07:28;14.17;;;11.07;;
14748;SDS011;7466;53.574;9.976;2022-12-18T10:10:07;16.17;;;11.63;;
14748;SDS011;7466;53.574;9.976;2022-12-18T10:12:44;15.00;;;11.03;;
14748;SDS011;7466;53.574;9.976;2022-12-18T10:15:19;18.50;;;12.07;;
14748;SDS011;7466;53.574;9.976;2022-12-18T10:17:51;13.63;;;10.63;;
14748;SDS011;7466;53.574;9.976;2022-12-18T10:20:24;13.57;;;11.00;;
14748;SDS011;7466;53.574;9.976;2022-12-18T10:23:00;14.97;;;11.03;;
14748;SDS011;7466;53.574;9.976;2022-12-18T10:25:38;14.00;;;11.27;;
14748;SDS011;7466;53.574;9.976;2022-12-18T10:28:10;13.00;;;11.03;;
14748;SDS011;7466;53.574;9.976;2022-12-18T10:30:40;16.57;;;11.17;;
14748;SDS011;7466;53.574;9.976;2022-12-18T10:33:09;16.23;;;10.00;;
14748;SDS011;7466;53.574;9.976;2022-12-18T10:35:38;12.30;;;10.43;;
14748;SDS011;7466;53.574;9.976;2022-12-18T10:38:21;17.60;;;10.93;;
14748;SDS011;7466;53.574;9.976;2022-12-18T10:40:51;13.03;;;10.77;;
14748;SDS011;7466;53.574;9.976;2022-12-18T10:43:20;13.23;;;10.23;;
14748;SDS011;7466;53.574;9.976;2022-12-18T10:45:58;13.97;;;10.80;;
14748;SDS011;7466;53.574;9.976;2022-12-18T10:48:27;13.50;;;11.10;;
14748;SDS011;7466;53.574;9.976;2022-12-18T10:50:54;14.27;;;11.43;;
14748;SDS011;7466;53.574;9.976;2022-12-18T10:53:24;13.03;;;10.40;;
14748;SDS011;7466;53.574;9.976;2022-12-18T10:55:54;14.53;;;11.10;;
14748;SDS011;7466;53.574;9.976;2022-12-18T10:58:24;15.17;;;10.67;;
14748;SDS011;7466;53.574;9.976;2022-12-18T11:03:41;15.43;;;10.87;;
14748;SDS011;7466;53.574;9.976;2022-12-18T11:06:10;15.63;;;11.50;;
14748;SDS011;7466;53.574;9.976;2022-12-18T11:08:40;14.70;;;11.37;;
14748;SDS011;7466;53.574;9.976;2022-12-18T11:11:15;16.07;;;12.10;;
14748;SDS011;7466;53.574;9.976;2022-12-18T11:13:50;15.03;;;12.20;;
14748;SDS011;7466;53.574;9.976;2022-12-18T11:16:25;19.43;;;12.90;;
14748;SDS011;7466;53.574;9.976;2022-12-18T11:18:53;15.30;;;11.80;;
14748;SDS011;7466;53.574;9.976;2022-12-18T11:21:19;21.57;;;13.03;;
14748;SDS011;7466;53.574;9.976;2022-12-18T11:23:49;16.87;;;10.83;;
14748;SDS011;7466;53.574;9.976;2022-12-18T11:26:17;17.63;;;12.77;;
14748;SDS011;7466;53.574;9.976;2022-12-18T11:28:46;15.07;;;11.73;;
14748;SDS011;7466;53.574;9.976;2022-12-18T11:31:19;18.80;;;12.60;;
14748;SDS011;7466;53.574;9.976;2022-12-18T11:33:50;18.13;;;14.33;;
14748;SDS011;7466;53.574;9.976;2022-12-18T11:36:23;18.70;;;13.10;;
14748;SDS011;7466;53.574;9.976;2022-12-18T11:38:52;16.83;;;12.67;;
14748;SDS011;7466;53.574;9.976;2022-12-18T11:41:23;19.37;;;13.23;;
14748;SDS011;7466;53.574;9.976;2022-12-18T11:44:10;20.00;;;13.97;;
14748;SDS011;7466;53.574;9.976;2022-12-18T11:46:41;17.60;;;12.33;;
14748;SDS011;7466;53.574;9.976;2022-12-18T11:49:14;16.13;;;13.00;;
14748;SDS011;7466;53.574;9.976;2022-12-18T11:51:47;17.10;;;12.73;;
14748;SDS011;7466;53.574;9.976;2022-12-18T11:54:20;21.37;;;13.27;;
14748;SDS011;7466;53.574;9.976;2022-12-18T11:56:48;18.70;;;13.80;;
14748;SDS011;7466;53.574;9.976;2022-12-18T11:59:19;21.33;;;14.50;;
14748;SDS011;7466;53.574;9.976;2022-12-18T12:01:59;20.03;;;13.97;;
14748;SDS011;7466;53.574;9.976;2022-12-18T12:04:46;23.57;;;13.87;;
14748;SDS011;7466;53.574;9.976;2022-12-18T12:07:24;20.77;;;14.00;;
14748;SDS011;7466;53.574;9.976;2022-12-18T12:10:03;19.40;;;14.23;;
14748;SDS011;7466;53.574;9.976;2022-12-18T12:12:46;19.97;;;13.83;;
14748;SDS011;7466;53.574;9.976;2022-12-18T12:15:28;19.47;;;14.50;;
14748;SDS011;7466;53.574;9.976;2022-12-18T12:18:05;19.47;;;13.90;;
14748;SDS011;7466;53.574;9.976;2022-12-18T12:20:42;20.00;;;13.67;;
14748;SDS011;7466;53.574;9.976;2022-12-18T12:23:18;20.93;;;13.13;;
14748;SDS011;7466;53.574;9.976;2022-12-18T12:25:55;21.50;;;14.60;;
14748;SDS011;7466;53.574;9.976;2022-12-18T12:28:29;21.30;;;12.87;;
14748;SDS011;7466;53.574;9.976;2022-12-18T12:31:11;18.57;;;14.00;;
14748;SDS011;7466;53.574;9.976;2022-12-18T12:33:44;19.57;;;13.53;;
14748;SDS011;7466;53.574;9.976;2022-12-18T12:36:20;21.27;;;13.63;;
14748;SDS011;7466;53.574;9.976;2022-12-18T12:38:56;17.77;;;13.50;;
14748;SDS011;7466;53.574;9.976;2022-12-18T12:41:30;19.97;;;13.53;;
14748;SDS011;7466;53.574;9.976;2022-12-18T12:44:20;20.30;;;13.23;;
14748;SDS011;7466;53.574;9.976;2022-12-18T12:46:50;22.13;;;14.50;;
14748;SDS011;7466;53.574;9.976;2022-12-18T12:49:25;21.33;;;14.00;;
14748;SDS011;7466;53.574;9.976;2022-12-18T12:51:57;22.87;;;15.30;;
14748;SDS011;7466;53.574;9.976;2022-12-18T12:54:31;21.50;;;14.40;;
14748;SDS011;7466;53.574;9.976;2022-12-18T12:57:01;18.87;;;14.00;;
14748;SDS011;7466;53.574;9.976;2022-12-18T12:59:37;19.57;;;13.10;;
14748;SDS011;7466;53.574;9.976;2022-12-18T13:02:15;19.30;;;12.83;;
14748;SDS011;7466;53.574;9.976;2022-12-18T13:04:49;19.77;;;12.67;;
14748;SDS011;7466;53.574;9.976;2022-12-18T13:07:20;21.03;;;12.40;;
14748;SDS011;7466;53.574;9.976;2022-12-18T13:10:12;18.53;;;12.93;;
14748;SDS011;7466;53.574;9.976;2022-12-18T13:12:52;20.87;;;12.73;;
14748;SDS011;7466;53.574;9.976;2022-12-18T13:15:23;17.93;;;12.50;;
14748;SDS011;7466;53.574;9.976;2022-12-18T13:18:03;20.17;;;13.27;;
14748;SDS011;7466;53.574;9.976;2022-12-18T13:20:34;20.77;;;14.70;;
14748;SDS011;7466;53.574;9.976;2022-12-18T13:23:17;21.43;;;14.73;;
14748;SDS011;7466;53.574;9.976;2022-12-18T13:25:52;22.87;;;15.13;;
14748;SDS011;7466;53.574;9.976;2022-12-18T13:28:21;23.87;;;14.27;;
14748;SDS011;7466;53.574;9.976;2022-12-18T13:30:54;25.97;;;15.33;;
14748;SDS011;7466;53.574;9.976;2022-12-18T13:36:26;24.50;;;15.57;;
14748;SDS011;7466;53.574;9.976;2022-12-18T13:41:52;23.93;;;15.17;;
14748;SDS011;7466;53.574;9.976;2022-12-18T13:45:03;31.43;;;15.57;;
14748;SDS011;7466;53.574;9.976;2022-12-18T13:48:18;25.77;;;15.80;;
14748;SDS011;7466;53.574;9.976;2022-12-18T13:50:49;28.50;;;15.70;;
14748;SDS011;7466;53.574;9.976;2022-12-18T13:53:23;30.57;;;16.17;;
14748;SDS011;7466;53.574;9.976;2022-12-18T13:55:53;27.83;;;16.47;;
14748;SDS011;7466;53.574;9.976;2022-12-18T13:58:20;35.30;;;17.07;;
14748;SDS011;7466;53.574;9.976;2022-12-18T14:00:48;28.93;;;16.33;;
14748;SDS011;7466;53.574;9.976;2022-12-18T14:03:16;27.70;;;16.93;;
14748;SDS011;7466;53.574;9.976;2022-12-18T14:05:45;30.80;;;17.37;;
14748;SDS011;7466;53.574;9.976;2022-12-18T14:08:18;31.30;;;15.77;;
14748;SDS011;7466;53.574;9.976;2022-12-18T14:10:45;29.80;;;16.63;;
14748;SDS011;7466;53.574;9.976;2022-12-18T14:13:15;28.07;;;16.83;;
14748;SDS011;7466;53.574;9.976;2022-12-18T14:15:45;25.60;;;15.57;;
14748;SDS011;7466;53.574;9.976;2022-12-18T14:18:17;27.57;;;15.63;;
14748;SDS011;7466;53.574;9.976;2022-12-18T14:20:48;28.40;;;14.80;;
14748;SDS011;7466;53.574;9.976;2022-12-18T14:23:25;26.83;;;15.73;;
14748;SDS011;7466;53.574;9.976;2022-12-18T14:25:54;27.00;;;16.53;;
14748;SDS011;7466;53.574;9.976;2022-12-18T14:28:21;30.93;;;16.53;;
14748;SDS011;7466;53.574;9.976;2022-12-18T14:30:49;28.17;;;16.77;;
14748;SDS011;7466;53.574;9.976;2022-12-18T14:33:17;32.43;;;15.63;;
14748;SDS011;7466;53.574;9.976;2022-12-18T14:35:53;25.87;;;13.60;;
14748;SDS011;7466;53.574;9.976;2022-12-18T14:38:23;31.87;;;17.27;;
14748;SDS011;7466;53.574;9.976;2022-12-18T14:40:52;33.43;;;16.67;;
14748;SDS011;7466;53.574;9.976;2022-12-18T14:43:27;39.77;;;19.00;;
14748;SDS011;7466;53.574;9.976;2022-12-18T14:45:56;33.07;;;17.27;;
14748;SDS011;7466;53.574;9.976;2022-12-18T14:48:31;33.43;;;18.30;;
14748;SDS011;7466;53.574;9.976;2022-12-18T14:51:04;33.83;;;17.10;;
14748;SDS011;7466;53.574;9.976;2022-12-18T14:53:33;31.30;;;17.30;;
14748;SDS011;7466;53.574;9.976;2022-12-18T14:56:03;34.70;;;16.77;;
14748;SDS011;7466;53.574;9.976;2022-12-18T14:58:38;35.53;;;17.93;;
14748;SDS011;7466;53.574;9.976;2022-12-18T15:01:06;32.60;;;18.63;;
14748;SDS011;7466;53.574;9.976;2022-12-18T15:03:33;31.87;;;17.77;;